sensor_id;sensor_type;location;lat;lon;timestamp;P1;durP1;ratioP1;P2;durP2;ratioP2
25950;SDS011;13748;52.240;6.002;2023-07-20T00:01:51;3.72;;;3.10;;
25950;SDS011;13748;52.240;6.002;2023-07-20T00:04:18;4.88;;;3.92;;
25950;SDS011;13748;52.240;6.002;2023-07-20T00:06:44;4.20;;;3.25;;
25950;SDS011;13748;52.240;6.002;2023-07-20T00:09:11;5.03;;;3.03;;
25950;SDS011;13748;52.240;6.002;2023-07-20T00:11:38;3.37;;;2.60;;
25950;SDS011;13748;52.240;6.002;2023-07-20T00:14:05;4.03;;;3.08;;
25950;SDS011;13748;52.240;6.002;2023-07-20T00:16:33;5.05;;;3.17;;
25950;SDS011;13748;52.240;6.002;2023-07-20T00:19:00;3.45;;;3.15;;
25950;SDS011;13748;52.240;6.002;2023-07-20T00:21:27;3.30;;;2.95;;
25950;SDS011;13748;52.240;6.002;2023-07-20T00:23:53;5.28;;;3.40;;
25950;SDS011;13748;52.240;6.002;2023-07-20T00:26:20;4.20;;;3.40;;
25950;SDS011;13748;52.240;6.002;2023-07-20T00:28:49;4.95;;;2.92;;
25950;SDS011;13748;52.240;6.002;2023-07-20T00:31:16;3.37;;;2.83;;
25950;SDS011;13748;52.240;6.002;2023-07-20T00:33:43;3.77;;;2.50;;
25950;SDS011;13748;52.240;6.002;2023-07-20T00:36:10;3.00;;;2.17;;
25950;SDS011;13748;52.240;6.002;2023-07-20T00:38:37;2.60;;;2.33;;
25950;SDS011;13748;52.240;6.002;2023-07-20T00:41:04;2.33;;;2.13;;
25950;SDS011;13748;52.240;6.002;2023-07-20T00:43:31;2.60;;;2.07;;
25950;SDS011;13748;52.240;6.002;2023-07-20T00:45:58;2.33;;;1.97;;
25950;SDS011;13748;52.240;6.002;2023-07-20T00:48:25;3.33;;;2.10;;
25950;SDS011;13748;52.240;6.002;2023-07-20T00:50:52;2.73;;;2.53;;
25950;SDS011;13748;52.240;6.002;2023-07-20T00:53:19;2.97;;;2.47;;
25950;SDS011;13748;52.240;6.002;2023-07-20T00:55:46;2.73;;;2.50;;
25950;SDS011;13748;52.240;6.002;2023-07-20T00:58:13;3.47;;;2.70;;
25950;SDS011;13748;52.240;6.002;2023-07-20T01:00:40;3.47;;;3.10;;
25950;SDS011;13748;52.240;6.002;2023-07-20T01:03:07;3.60;;;2.57;;
25950;SDS011;13748;52.240;6.002;2023-07-20T01:05:40;4.03;;;2.60;;
25950;SDS011;13748;52.240;6.002;2023-07-20T01:08:28;3.77;;;2.73;;
25950;SDS011;13748;52.240;6.002;2023-07-20T01:11:06;3.00;;;2.27;;
25950;SDS011;13748;52.240;6.002;2023-07-20T01:13:48;3.47;;;2.50;;
25950;SDS011;13748;52.240;6.002;2023-07-20T01:16:16;2.90;;;2.33;;
25950;SDS011;13748;52.240;6.002;2023-07-20T01:18:43;3.57;;;2.23;;
25950;SDS011;13748;52.240;6.002;2023-07-20T01:21:12;2.50;;;2.10;;
25950;SDS011;13748;52.240;6.002;2023-07-20T01:24:00;2.73;;;2.27;;
25950;SDS011;13748;52.240;6.002;2023-07-20T01:29:56;2.33;;;1.67;;
25950;SDS011;13748;52.240;6.002;2023-07-20T01:32:46;1.70;;;1.60;;
25950;SDS011;13748;52.240;6.002;2023-07-20T01:35:14;1.73;;;1.63;;
25950;SDS011;13748;52.240;6.002;2023-07-20T01:37:43;2.20;;;1.80;;
25950;SDS011;13748;52.240;6.002;2023-07-20T01:40:13;1.93;;;1.73;;
25950;SDS011;13748;52.240;6.002;2023-07-20T01:42:48;1.90;;;1.80;;
25950;SDS011;13748;52.240;6.002;2023-07-20T01:45:15;1.70;;;1.53;;
25950;SDS011;13748;52.240;6.002;2023-07-20T01:47:42;1.77;;;1.67;;
25950;SDS011;13748;52.240;6.002;2023-07-20T01:50:10;2.73;;;2.23;;
25950;SDS011;13748;52.240;6.002;2023-07-20T01:52:36;2.23;;;1.60;;
25950;SDS011;13748;52.240;6.002;2023-07-20T01:55:03;1.70;;;1.60;;
25950;SDS011;13748;52.240;6.002;2023-07-20T01:57:30;2.73;;;1.57;;
25950;SDS011;13748;52.240;6.002;2023-07-20T01:59:58;3.70;;;1.70;;
25950;SDS011;13748;52.240;6.002;2023-07-20T02:02:26;1.73;;;1.63;;
25950;SDS011;13748;52.240;6.002;2023-07-20T02:04:54;1.90;;;1.60;;
25950;SDS011;13748;52.240;6.002;2023-07-20T02:07:21;2.63;;;1.70;;
25950;SDS011;13748;52.240;6.002;2023-07-20T02:09:47;1.77;;;1.67;;
25950;SDS011;13748;52.240;6.002;2023-07-20T02:12:14;2.10;;;1.73;;
25950;SDS011;13748;52.240;6.002;2023-07-20T02:14:41;3.00;;;1.83;;
25950;SDS011;13748;52.240;6.002;2023-07-20T02:17:08;1.97;;;1.77;;
25950;SDS011;13748;52.240;6.002;2023-07-20T02:19:37;2.07;;;1.63;;
25950;SDS011;13748;52.240;6.002;2023-07-20T02:22:04;1.87;;;1.67;;
25950;SDS011;13748;52.240;6.002;2023-07-20T02:24:33;2.13;;;1.73;;
25950;SDS011;13748;52.240;6.002;2023-07-20T02:27:00;1.87;;;1.50;;
25950;SDS011;13748;52.240;6.002;2023-07-20T02:29:27;1.50;;;1.40;;
25950;SDS011;13748;52.240;6.002;2023-07-20T02:31:54;4.30;;;1.70;;
25950;SDS011;13748;52.240;6.002;2023-07-20T02:34:20;1.90;;;1.70;;
25950;SDS011;13748;52.240;6.002;2023-07-20T02:36:47;2.17;;;1.80;;
25950;SDS011;13748;52.240;6.002;2023-07-20T02:39:14;1.93;;;1.57;;
25950;SDS011;13748;52.240;6.002;2023-07-20T02:41:41;2.60;;;1.73;;
25950;SDS011;13748;52.240;6.002;2023-07-20T02:44:07;1.87;;;1.50;;
25950;SDS011;13748;52.240;6.002;2023-07-20T02:46:34;1.60;;;1.50;;
25950;SDS011;13748;52.240;6.002;2023-07-20T02:49:01;2.27;;;1.70;;
25950;SDS011;13748;52.240;6.002;2023-07-20T02:51:28;2.03;;;1.80;;
25950;SDS011;13748;52.240;6.002;2023-07-20T02:53:55;1.70;;;1.60;;
25950;SDS011;13748;52.240;6.002;2023-07-20T02:56:22;1.90;;;1.80;;
25950;SDS011;13748;52.240;6.002;2023-07-20T02:58:49;1.93;;;1.70;;
25950;SDS011;13748;52.240;6.002;2023-07-20T03:01:17;2.77;;;2.23;;
25950;SDS011;13748;52.240;6.002;2023-07-20T03:03:43;2.50;;;1.90;;
25950;SDS011;13748;52.240;6.002;2023-07-20T03:06:14;2.53;;;2.10;;
25950;SDS011;13748;52.240;6.002;2023-07-20T03:08:44;2.60;;;1.90;;
25950;SDS011;13748;52.240;6.002;2023-07-20T03:11:16;2.17;;;1.93;;
25950;SDS011;13748;52.240;6.002;2023-07-20T03:13:44;2.00;;;1.80;;
25950;SDS011;13748;52.240;6.002;2023-07-20T03:16:12;3.70;;;1.90;;
25950;SDS011;13748;52.240;6.002;2023-07-20T03:18:41;2.33;;;2.00;;
25950;SDS011;13748;52.240;6.002;2023-07-20T03:21:09;2.27;;;2.00;;
25950;SDS011;13748;52.240;6.002;2023-07-20T03:23:39;1.90;;;1.80;;
25950;SDS011;13748;52.240;6.002;2023-07-20T03:26:06;2.63;;;1.73;;
25950;SDS011;13748;52.240;6.002;2023-07-20T03:28:36;2.67;;;2.30;;
25950;SDS011;13748;52.240;6.002;2023-07-20T03:31:04;1.93;;;1.83;;
25950;SDS011;13748;52.240;6.002;2023-07-20T03:33:31;2.30;;;2.10;;
25950;SDS011;13748;52.240;6.002;2023-07-20T03:35:59;2.83;;;2.20;;
25950;SDS011;13748;52.240;6.002;2023-07-20T03:38:26;3.73;;;2.43;;
25950;SDS011;13748;52.240;6.002;2023-07-20T03:40:55;2.57;;;2.30;;
25950;SDS011;13748;52.240;6.002;2023-07-20T03:43:23;2.77;;;2.23;;
25950;SDS011;13748;52.240;6.002;2023-07-20T03:45:52;2.90;;;2.60;;
25950;SDS011;13748;52.240;6.002;2023-07-20T03:48:20;4.07;;;2.47;;
25950;SDS011;13748;52.240;6.002;2023-07-20T03:50:48;2.70;;;2.50;;
25950;SDS011;13748;52.240;6.002;2023-07-20T03:53:16;2.40;;;2.13;;
25950;SDS011;13748;52.240;6.002;2023-07-20T03:55:46;2.50;;;2.30;;
25950;SDS011;13748;52.240;6.002;2023-07-20T03:58:15;2.90;;;2.60;;
25950;SDS011;13748;52.240;6.002;2023-07-20T04:00:48;3.57;;;2.60;;
25950;SDS011;13748;52.240;6.002;2023-07-20T04:03:17;2.97;;;2.53;;
25950;SDS011;13748;52.240;6.002;2023-07-20T04:05:45;2.80;;;2.50;;
25950;SDS011;13748;52.240;6.002;2023-07-20T04:08:12;3.10;;;2.57;;
25950;SDS011;13748;52.240;6.002;2023-07-20T04:10:39;2.77;;;2.47;;
25950;SDS011;13748;52.240;6.002;2023-07-20T04:13:09;3.10;;;2.60;;
25950;SDS011;13748;52.240;6.002;2023-07-20T04:15:36;3.10;;;2.60;;
25950;SDS011;13748;52.240;6.002;2023-07-20T04:18:02;3.07;;;2.53;;
25950;SDS011;13748;52.240;6.002;2023-07-20T04:20:29;3.60;;;3.10;;
25950;SDS011;13748;52.240;6.002;2023-07-20T04:22:56;4.10;;;2.60;;
25950;SDS011;13748;52.240;6.002;2023-07-20T04:25:23;4.23;;;2.73;;
25950;SDS011;13748;52.240;6.002;2023-07-20T04:27:49;3.00;;;2.60;;
25950;SDS011;13748;52.240;6.002;2023-07-20T04:30:18;3.20;;;2.90;;
25950;SDS011;13748;52.240;6.002;2023-07-20T04:32:48;4.27;;;3.07;;
25950;SDS011;13748;52.240;6.002;2023-07-20T04:35:17;3.33;;;2.90;;
25950;SDS011;13748;52.240;6.002;2023-07-20T04:38:04;3.03;;;2.60;;
25950;SDS011;13748;52.240;6.002;2023-07-20T04:40:31;5.00;;;2.60;;
25950;SDS011;13748;52.240;6.002;2023-07-20T04:42:58;2.90;;;2.60;;
25950;SDS011;13748;52.240;6.002;2023-07-20T04:45:24;2.90;;;2.37;;
25950;SDS011;13748;52.240;6.002;2023-07-20T04:47:51;3.07;;;2.60;;
25950;SDS011;13748;52.240;6.002;2023-07-20T04:50:19;3.50;;;3.00;;
25950;SDS011;13748;52.240;6.002;2023-07-20T04:52:46;2.83;;;2.43;;
25950;SDS011;13748;52.240;6.002;2023-07-20T04:55:14;2.60;;;2.40;;
25950;SDS011;13748;52.240;6.002;2023-07-20T04:57:41;3.50;;;3.10;;
25950;SDS011;13748;52.240;6.002;2023-07-20T05:00:08;4.67;;;2.70;;
25950;SDS011;13748;52.240;6.002;2023-07-20T05:02:37;3.30;;;2.83;;
25950;SDS011;13748;52.240;6.002;2023-07-20T05:05:04;4.67;;;2.70;;
25950;SDS011;13748;52.240;6.002;2023-07-20T05:07:32;3.10;;;2.70;;
25950;SDS011;13748;52.240;6.002;2023-07-20T05:09:58;3.83;;;2.93;;
25950;SDS011;13748;52.240;6.002;2023-07-20T05:12:25;3.97;;;2.70;;
25950;SDS011;13748;52.240;6.002;2023-07-20T05:14:52;2.73;;;2.53;;
25950;SDS011;13748;52.240;6.002;2023-07-20T05:17:19;3.17;;;2.70;;
25950;SDS011;13748;52.240;6.002;2023-07-20T05:19:46;4.10;;;2.53;;
25950;SDS011;13748;52.240;6.002;2023-07-20T05:22:16;3.40;;;2.80;;
25950;SDS011;13748;52.240;6.002;2023-07-20T05:24:42;3.50;;;2.60;;
25950;SDS011;13748;52.240;6.002;2023-07-20T05:27:09;3.63;;;2.57;;
25950;SDS011;13748;52.240;6.002;2023-07-20T05:29:37;4.07;;;2.60;;
25950;SDS011;13748;52.240;6.002;2023-07-20T05:32:04;3.67;;;1.90;;
25950;SDS011;13748;52.240;6.002;2023-07-20T05:34:32;4.07;;;2.60;;
25950;SDS011;13748;52.240;6.002;2023-07-20T05:36:59;4.37;;;2.00;;
25950;SDS011;13748;52.240;6.002;2023-07-20T05:39:26;2.47;;;2.10;;
25950;SDS011;13748;52.240;6.002;2023-07-20T05:42:00;4.40;;;2.37;;
25950;SDS011;13748;52.240;6.002;2023-07-20T05:45:16;4.90;;;2.10;;
25950;SDS011;13748;52.240;6.002;2023-07-20T05:47:52;2.53;;;1.52;;
25950;SDS011;13748;52.240;6.002;2023-07-20T05:50:20;1.75;;;1.27;;
25950;SDS011;13748;52.240;6.002;2023-07-20T05:52:51;1.20;;;1.10;;
25950;SDS011;13748;52.240;6.002;2023-07-20T05:55:19;0.90;;;0.90;;
25950;SDS011;13748;52.240;6.002;2023-07-20T05:57:47;1.20;;;1.10;;
25950;SDS011;13748;52.240;6.002;2023-07-20T06:02:53;0.90;;;0.90;;
25950;SDS011;13748;52.240;6.002;2023-07-20T06:05:33;0.98;;;0.85;;
25950;SDS011;13748;52.240;6.002;2023-07-20T06:08:04;1.92;;;0.88;;
25950;SDS011;13748;52.240;6.002;2023-07-20T06:10:37;1.05;;;0.90;;
25950;SDS011;13748;52.240;6.002;2023-07-20T06:13:05;1.85;;;0.95;;
25950;SDS011;13748;52.240;6.002;2023-07-20T06:15:36;1.30;;;0.90;;
25950;SDS011;13748;52.240;6.002;2023-07-20T06:18:04;2.00;;;1.00;;
25950;SDS011;13748;52.240;6.002;2023-07-20T06:20:31;1.20;;;0.73;;
25950;SDS011;13748;52.240;6.002;2023-07-20T06:22:58;1.38;;;0.80;;
25950;SDS011;13748;52.240;6.002;2023-07-20T06:25:25;1.33;;;0.90;;
25950;SDS011;13748;52.240;6.002;2023-07-20T06:27:54;0.70;;;0.60;;
25950;SDS011;13748;52.240;6.002;2023-07-20T06:30:25;1.63;;;0.80;;
25950;SDS011;13748;52.240;6.002;2023-07-20T06:32:53;1.15;;;0.70;;
25950;SDS011;13748;52.240;6.002;2023-07-20T06:35:20;1.25;;;0.73;;
25950;SDS011;13748;52.240;6.002;2023-07-20T06:37:48;1.35;;;0.75;;
25950;SDS011;13748;52.240;6.002;2023-07-20T06:40:16;1.20;;;0.73;;
25950;SDS011;13748;52.240;6.002;2023-07-20T06:42:50;0.85;;;0.70;;
25950;SDS011;13748;52.240;6.002;2023-07-20T06:45:23;0.70;;;0.57;;
25950;SDS011;13748;52.240;6.002;2023-07-20T06:47:50;1.17;;;0.77;;
25950;SDS011;13748;52.240;6.002;2023-07-20T06:50:24;1.67;;;0.70;;
25950;SDS011;13748;52.240;6.002;2023-07-20T06:52:53;0.88;;;0.55;;
25950;SDS011;13748;52.240;6.002;2023-07-20T06:55:25;1.80;;;0.70;;
25950;SDS011;13748;52.240;6.002;2023-07-20T06:57:52;1.45;;;1.00;;
25950;SDS011;13748;52.240;6.002;2023-07-20T07:00:25;1.05;;;0.57;;
25950;SDS011;13748;52.240;6.002;2023-07-20T07:02:53;0.70;;;0.60;;
25950;SDS011;13748;52.240;6.002;2023-07-20T07:05:21;1.10;;;0.60;;
25950;SDS011;13748;52.240;6.002;2023-07-20T07:07:48;0.50;;;0.50;;
25950;SDS011;13748;52.240;6.002;2023-07-20T07:10:24;0.88;;;0.45;;
25950;SDS011;13748;52.240;6.002;2023-07-20T07:12:52;0.63;;;0.40;;
25950;SDS011;13748;52.240;6.002;2023-07-20T07:15:19;1.40;;;0.55;;
25950;SDS011;13748;52.240;6.002;2023-07-20T07:17:48;0.70;;;0.50;;
25950;SDS011;13748;52.240;6.002;2023-07-20T07:20:16;0.57;;;0.40;;
25950;SDS011;13748;52.240;6.002;2023-07-20T07:22:47;0.40;;;0.40;;
25950;SDS011;13748;52.240;6.002;2023-07-20T07:25:21;0.98;;;0.50;;
25950;SDS011;13748;52.240;6.002;2023-07-20T07:27:49;1.58;;;0.63;;
25950;SDS011;13748;52.240;6.002;2023-07-20T07:30:17;1.20;;;0.57;;
25950;SDS011;13748;52.240;6.002;2023-07-20T07:32:46;0.77;;;0.60;;
25950;SDS011;13748;52.240;6.002;2023-07-20T07:35:15;1.38;;;0.40;;
25950;SDS011;13748;52.240;6.002;2023-07-20T07:37:42;0.80;;;0.30;;
25950;SDS011;13748;52.240;6.002;2023-07-20T07:40:29;0.73;;;0.50;;
25950;SDS011;13748;52.240;6.002;2023-07-20T07:42:56;0.60;;;0.40;;
25950;SDS011;13748;52.240;6.002;2023-07-20T07:45:25;0.85;;;0.60;;
25950;SDS011;13748;52.240;6.002;2023-07-20T07:47:52;1.10;;;0.55;;
25950;SDS011;13748;52.240;6.002;2023-07-20T07:50:20;1.42;;;0.60;;
25950;SDS011;13748;52.240;6.002;2023-07-20T07:52:47;1.30;;;0.38;;
25950;SDS011;13748;52.240;6.002;2023-07-20T07:55:17;0.32;;;0.32;;
25950;SDS011;13748;52.240;6.002;2023-07-20T07:57:44;0.85;;;0.65;;
25950;SDS011;13748;52.240;6.002;2023-07-20T08:00:14;0.50;;;0.50;;
25950;SDS011;13748;52.240;6.002;2023-07-20T08:02:46;0.90;;;0.60;;
25950;SDS011;13748;52.240;6.002;2023-07-20T08:05:16;0.82;;;0.60;;
25950;SDS011;13748;52.240;6.002;2023-07-20T08:07:43;0.70;;;0.40;;
25950;SDS011;13748;52.240;6.002;2023-07-20T08:10:14;0.73;;;0.50;;
25950;SDS011;13748;52.240;6.002;2023-07-20T08:12:40;0.55;;;0.50;;
25950;SDS011;13748;52.240;6.002;2023-07-20T08:15:10;0.77;;;0.50;;
25950;SDS011;13748;52.240;6.002;2023-07-20T08:17:44;1.33;;;0.50;;
25950;SDS011;13748;52.240;6.002;2023-07-20T08:20:17;1.65;;;0.60;;
25950;SDS011;13748;52.240;6.002;2023-07-20T08:22:44;0.60;;;0.50;;
25950;SDS011;13748;52.240;6.002;2023-07-20T08:25:16;0.57;;;0.57;;
25950;SDS011;13748;52.240;6.002;2023-07-20T08:27:43;0.60;;;0.50;;
25950;SDS011;13748;52.240;6.002;2023-07-20T08:30:13;1.10;;;0.50;;
25950;SDS011;13748;52.240;6.002;2023-07-20T08:32:40;0.47;;;0.45;;
25950;SDS011;13748;52.240;6.002;2023-07-20T08:35:09;0.50;;;0.50;;
25950;SDS011;13748;52.240;6.002;2023-07-20T08:37:36;0.70;;;0.40;;
25950;SDS011;13748;52.240;6.002;2023-07-20T08:40:03;1.13;;;0.40;;
25950;SDS011;13748;52.240;6.002;2023-07-20T08:42:31;0.45;;;0.30;;
25950;SDS011;13748;52.240;6.002;2023-07-20T08:44:58;1.35;;;0.60;;
25950;SDS011;13748;52.240;6.002;2023-07-20T08:47:28;0.45;;;0.40;;
25950;SDS011;13748;52.240;6.002;2023-07-20T08:50:03;0.30;;;0.30;;
25950;SDS011;13748;52.240;6.002;2023-07-20T08:52:34;0.80;;;0.32;;
25950;SDS011;13748;52.240;6.002;2023-07-20T08:55:01;0.50;;;0.30;;
25950;SDS011;13748;52.240;6.002;2023-07-20T08:57:32;2.15;;;0.63;;
25950;SDS011;13748;52.240;6.002;2023-07-20T09:00:12;0.60;;;0.60;;
25950;SDS011;13748;52.240;6.002;2023-07-20T09:02:45;1.92;;;0.80;;
25950;SDS011;13748;52.240;6.002;2023-07-20T09:05:12;1.45;;;0.70;;
25950;SDS011;13748;52.240;6.002;2023-07-20T09:07:42;0.75;;;0.70;;
25950;SDS011;13748;52.240;6.002;2023-07-20T09:10:10;0.75;;;0.65;;
25950;SDS011;13748;52.240;6.002;2023-07-20T09:12:41;0.57;;;0.50;;
25950;SDS011;13748;52.240;6.002;2023-07-20T09:15:11;1.70;;;0.75;;
25950;SDS011;13748;52.240;6.002;2023-07-20T09:17:39;0.80;;;0.57;;
25950;SDS011;13748;52.240;6.002;2023-07-20T09:20:10;0.70;;;0.60;;
25950;SDS011;13748;52.240;6.002;2023-07-20T09:22:44;0.82;;;0.50;;
25950;SDS011;13748;52.240;6.002;2023-07-20T09:27:42;1.58;;;0.63;;
25950;SDS011;13748;52.240;6.002;2023-07-20T09:33:21;0.50;;;0.50;;
25950;SDS011;13748;52.240;6.002;2023-07-20T09:39:19;0.73;;;0.57;;
25950;SDS011;13748;52.240;6.002;2023-07-20T09:41:52;0.82;;;0.70;;
25950;SDS011;13748;52.240;6.002;2023-07-20T09:44:39;1.25;;;0.70;;
25950;SDS011;13748;52.240;6.002;2023-07-20T09:47:15;0.40;;;0.40;;
25950;SDS011;13748;52.240;6.002;2023-07-20T09:49:57;0.50;;;0.50;;
25950;SDS011;13748;52.240;6.002;2023-07-20T09:52:32;0.40;;;0.40;;
25950;SDS011;13748;52.240;6.002;2023-07-20T09:55:05;1.08;;;0.50;;
25950;SDS011;13748;52.240;6.002;2023-07-20T09:57:34;1.35;;;0.50;;
25950;SDS011;13748;52.240;6.002;2023-07-20T10:00:19;0.85;;;0.50;;
25950;SDS011;13748;52.240;6.002;2023-07-20T10:02:54;0.98;;;0.60;;
25950;SDS011;13748;52.240;6.002;2023-07-20T10:05:31;0.85;;;0.60;;
25950;SDS011;13748;52.240;6.002;2023-07-20T10:08:07;0.98;;;0.50;;
25950;SDS011;13748;52.240;6.002;2023-07-20T10:10:41;1.10;;;0.68;;
25950;SDS011;13748;52.240;6.002;2023-07-20T10:13:31;0.60;;;0.60;;
25950;SDS011;13748;52.240;6.002;2023-07-20T10:16:07;0.95;;;0.70;;
25950;SDS011;13748;52.240;6.002;2023-07-20T10:21:30;0.88;;;0.70;;
25950;SDS011;13748;52.240;6.002;2023-07-20T10:24:04;1.20;;;0.60;;
25950;SDS011;13748;52.240;6.002;2023-07-20T10:26:32;0.68;;;0.60;;
25950;SDS011;13748;52.240;6.002;2023-07-20T10:29:02;0.80;;;0.60;;
25950;SDS011;13748;52.240;6.002;2023-07-20T10:31:32;0.75;;;0.55;;
25950;SDS011;13748;52.240;6.002;2023-07-20T10:34:01;0.50;;;0.50;;
25950;SDS011;13748;52.240;6.002;2023-07-20T10:36:29;0.50;;;0.50;;
25950;SDS011;13748;52.240;6.002;2023-07-20T10:39:07;0.57;;;0.40;;
25950;SDS011;13748;52.240;6.002;2023-07-20T10:42:11;0.57;;;0.50;;
25950;SDS011;13748;52.240;6.002;2023-07-20T10:44:42;1.42;;;0.50;;
25950;SDS011;13748;52.240;6.002;2023-07-20T10:50:02;0.40;;;0.40;;
25950;SDS011;13748;52.240;6.002;2023-07-20T10:52:36;0.50;;;0.50;;
25950;SDS011;13748;52.240;6.002;2023-07-20T10:55:38;1.90;;;0.60;;
25950;SDS011;13748;52.240;6.002;2023-07-20T10:58:12;0.43;;;0.40;;
25950;SDS011;13748;52.240;6.002;2023-07-20T11:03:35;0.70;;;0.40;;
25950;SDS011;13748;52.240;6.002;2023-07-20T11:08:55;0.75;;;0.40;;
25950;SDS011;13748;52.240;6.002;2023-07-20T11:11:33;0.40;;;0.40;;
25950;SDS011;13748;52.240;6.002;2023-07-20T11:19:44;0.50;;;0.50;;
25950;SDS011;13748;52.240;6.002;2023-07-20T11:22:27;0.60;;;0.50;;
25950;SDS011;13748;52.240;6.002;2023-07-20T11:24:58;0.90;;;0.50;;
25950;SDS011;13748;52.240;6.002;2023-07-20T11:27:31;1.95;;;0.88;;
25950;SDS011;13748;52.240;6.002;2023-07-20T11:29:58;1.13;;;0.63;;
25950;SDS011;13748;52.240;6.002;2023-07-20T11:32:25;2.88;;;0.70;;
25950;SDS011;13748;52.240;6.002;2023-07-20T11:35:03;0.70;;;0.60;;
25950;SDS011;13748;52.240;6.002;2023-07-20T11:37:31;1.15;;;0.95;;
25950;SDS011;13748;52.240;6.002;2023-07-20T11:40:09;0.63;;;0.63;;
25950;SDS011;13748;52.240;6.002;2023-07-20T11:42:37;1.08;;;0.88;;
25950;SDS011;13748;52.240;6.002;2023-07-20T11:45:07;1.08;;;0.80;;
25950;SDS011;13748;52.240;6.002;2023-07-20T11:47:44;1.50;;;0.50;;
25950;SDS011;13748;52.240;6.002;2023-07-20T11:50:13;1.10;;;0.50;;
25950;SDS011;13748;52.240;6.002;2023-07-20T11:52:40;1.25;;;0.70;;
25950;SDS011;13748;52.240;6.002;2023-07-20T11:55:08;1.17;;;0.73;;
25950;SDS011;13748;52.240;6.002;2023-07-20T11:57:40;1.48;;;0.70;;
25950;SDS011;13748;52.240;6.002;2023-07-20T12:00:09;0.50;;;0.50;;
25950;SDS011;13748;52.240;6.002;2023-07-20T12:02:46;0.52;;;0.52;;
25950;SDS011;13748;52.240;6.002;2023-07-20T12:05:17;0.55;;;0.40;;
25950;SDS011;13748;52.240;6.002;2023-07-20T12:07:49;1.38;;;0.70;;
25950;SDS011;13748;52.240;6.002;2023-07-20T12:10:25;0.82;;;0.60;;
25950;SDS011;13748;52.240;6.002;2023-07-20T12:12:53;1.63;;;0.70;;
25950;SDS011;13748;52.240;6.002;2023-07-20T12:15:29;3.33;;;0.70;;
25950;SDS011;13748;52.240;6.002;2023-07-20T12:18:07;1.38;;;0.65;;
25950;SDS011;13748;52.240;6.002;2023-07-20T12:20:42;2.67;;;0.60;;
25950;SDS011;13748;52.240;6.002;2023-07-20T12:23:11;1.40;;;0.57;;
25950;SDS011;13748;52.240;6.002;2023-07-20T12:25:41;0.80;;;0.80;;
25950;SDS011;13748;52.240;6.002;2023-07-20T12:28:17;1.00;;;0.63;;
25950;SDS011;13748;52.240;6.002;2023-07-20T12:30:46;0.60;;;0.60;;
25950;SDS011;13748;52.240;6.002;2023-07-20T12:33:18;0.52;;;0.52;;
25950;SDS011;13748;52.240;6.002;2023-07-20T12:35:49;0.70;;;0.70;;
25950;SDS011;13748;52.240;6.002;2023-07-20T12:38:18;1.65;;;0.60;;
25950;SDS011;13748;52.240;6.002;2023-07-20T12:40:46;1.08;;;0.70;;
25950;SDS011;13748;52.240;6.002;2023-07-20T12:43:13;0.60;;;0.60;;
25950;SDS011;13748;52.240;6.002;2023-07-20T12:45:43;0.47;;;0.40;;
25950;SDS011;13748;52.240;6.002;2023-07-20T12:48:11;0.90;;;0.70;;
25950;SDS011;13748;52.240;6.002;2023-07-20T12:50:43;1.38;;;0.73;;
25950;SDS011;13748;52.240;6.002;2023-07-20T12:53:11;2.45;;;1.08;;
25950;SDS011;13748;52.240;6.002;2023-07-20T12:55:38;8.52;;;1.95;;
25950;SDS011;13748;52.240;6.002;2023-07-20T12:58:09;8.82;;;2.05;;
25950;SDS011;13748;52.240;6.002;2023-07-20T13:00:39;2.22;;;1.10;;
25950;SDS011;13748;52.240;6.002;2023-07-20T13:03:06;2.47;;;1.10;;
25950;SDS011;13748;52.240;6.002;2023-07-20T13:05:35;1.42;;;1.00;;
25950;SDS011;13748;52.240;6.002;2023-07-20T13:08:08;1.10;;;1.00;;
25950;SDS011;13748;52.240;6.002;2023-07-20T13:10:39;3.17;;;1.00;;
25950;SDS011;13748;52.240;6.002;2023-07-20T13:13:08;1.40;;;0.90;;
25950;SDS011;13748;52.240;6.002;2023-07-20T13:15:41;0.98;;;0.80;;
25950;SDS011;13748;52.240;6.002;2023-07-20T13:18:12;3.00;;;1.20;;
25950;SDS011;13748;52.240;6.002;2023-07-20T13:20:39;1.15;;;1.02;;
25950;SDS011;13748;52.240;6.002;2023-07-20T13:23:06;1.35;;;0.88;;
25950;SDS011;13748;52.240;6.002;2023-07-20T13:25:34;1.20;;;1.05;;
25950;SDS011;13748;52.240;6.002;2023-07-20T13:28:03;1.27;;;1.17;;
25950;SDS011;13748;52.240;6.002;2023-07-20T13:30:32;1.63;;;1.10;;
25950;SDS011;13748;52.240;6.002;2023-07-20T13:32:59;1.08;;;0.90;;
25950;SDS011;13748;52.240;6.002;2023-07-20T13:35:32;1.30;;;1.13;;
25950;SDS011;13748;52.240;6.002;2023-07-20T13:38:04;1.35;;;1.10;;
25950;SDS011;13748;52.240;6.002;2023-07-20T13:40:34;1.30;;;1.20;;
25950;SDS011;13748;52.240;6.002;2023-07-20T13:43:04;2.25;;;1.08;;
25950;SDS011;13748;52.240;6.002;2023-07-20T13:45:31;1.27;;;0.90;;
25950;SDS011;13748;52.240;6.002;2023-07-20T13:47:59;3.38;;;1.35;;
25950;SDS011;13748;52.240;6.002;2023-07-20T13:50:30;1.60;;;1.13;;
25950;SDS011;13748;52.240;6.002;2023-07-20T13:53:10;0.90;;;0.80;;
25950;SDS011;13748;52.240;6.002;2023-07-20T13:55:41;2.47;;;1.00;;
25950;SDS011;13748;52.240;6.002;2023-07-20T13:58:12;1.35;;;0.90;;
25950;SDS011;13748;52.240;6.002;2023-07-20T14:00:41;1.08;;;0.90;;
25950;SDS011;13748;52.240;6.002;2023-07-20T14:03:08;1.55;;;0.98;;
25950;SDS011;13748;52.240;6.002;2023-07-20T14:05:41;1.40;;;1.30;;
25950;SDS011;13748;52.240;6.002;2023-07-20T14:08:13;1.83;;;1.20;;
25950;SDS011;13748;52.240;6.002;2023-07-20T14:10:40;1.05;;;0.77;;
25950;SDS011;13748;52.240;6.002;2023-07-20T14:13:11;1.75;;;0.90;;
25950;SDS011;13748;52.240;6.002;2023-07-20T14:15:40;1.00;;;0.90;;
25950;SDS011;13748;52.240;6.002;2023-07-20T14:18:14;0.70;;;0.70;;
25950;SDS011;13748;52.240;6.002;2023-07-20T14:20:46;0.80;;;0.80;;
25950;SDS011;13748;52.240;6.002;2023-07-20T14:23:15;2.70;;;1.00;;
25950;SDS011;13748;52.240;6.002;2023-07-20T14:25:44;1.50;;;0.90;;
25950;SDS011;13748;52.240;6.002;2023-07-20T14:28:14;1.27;;;0.73;;
25950;SDS011;13748;52.240;6.002;2023-07-20T14:30:42;1.13;;;0.93;;
25950;SDS011;13748;52.240;6.002;2023-07-20T14:33:11;1.65;;;0.82;;
25950;SDS011;13748;52.240;6.002;2023-07-20T14:35:41;1.55;;;1.05;;
25950;SDS011;13748;52.240;6.002;2023-07-20T14:38:15;1.63;;;1.10;;
25950;SDS011;13748;52.240;6.002;2023-07-20T14:40:42;2.20;;;1.10;;
25950;SDS011;13748;52.240;6.002;2023-07-20T14:43:09;1.25;;;0.82;;
25950;SDS011;13748;52.240;6.002;2023-07-20T14:45:36;1.25;;;1.00;;
25950;SDS011;13748;52.240;6.002;2023-07-20T14:48:04;1.08;;;0.95;;
25950;SDS011;13748;52.240;6.002;2023-07-20T14:50:32;1.65;;;1.08;;
25950;SDS011;13748;52.240;6.002;2023-07-20T14:53:00;1.40;;;0.90;;
25950;SDS011;13748;52.240;6.002;2023-07-20T14:55:33;1.23;;;0.90;;
25950;SDS011;13748;52.240;6.002;2023-07-20T14:58:02;1.63;;;1.50;;
25950;SDS011;13748;52.240;6.002;2023-07-20T15:00:29;2.50;;;1.05;;
25950;SDS011;13748;52.240;6.002;2023-07-20T15:02:57;1.10;;;0.95;;
25950;SDS011;13748;52.240;6.002;2023-07-20T15:05:25;1.38;;;1.00;;
25950;SDS011;13748;52.240;6.002;2023-07-20T15:07:55;1.20;;;1.10;;
25950;SDS011;13748;52.240;6.002;2023-07-20T15:10:28;1.40;;;1.00;;
25950;SDS011;13748;52.240;6.002;2023-07-20T15:13:01;2.95;;;1.00;;
25950;SDS011;13748;52.240;6.002;2023-07-20T15:15:31;1.48;;;0.93;;
25950;SDS011;13748;52.240;6.002;2023-07-20T15:18:00;2.10;;;0.80;;
25950;SDS011;13748;52.240;6.002;2023-07-20T15:20:28;1.95;;;0.90;;
25950;SDS011;13748;52.240;6.002;2023-07-20T15:22:58;1.10;;;1.00;;
25950;SDS011;13748;52.240;6.002;2023-07-20T15:25:29;1.38;;;0.93;;
25950;SDS011;13748;52.240;6.002;2023-07-20T15:27:59;1.40;;;1.20;;
25950;SDS011;13748;52.240;6.002;2023-07-20T15:30:28;2.03;;;0.80;;
25950;SDS011;13748;52.240;6.002;2023-07-20T15:33:01;1.58;;;0.88;;
25950;SDS011;13748;52.240;6.002;2023-07-20T15:35:37;0.70;;;0.70;;
25950;SDS011;13748;52.240;6.002;2023-07-20T15:38:07;1.60;;;1.00;;